createdAt,value
2023-01-27T00:01:51.624Z,97049.00
2023-01-27T00:04:20.496Z,97046.25
2023-01-27T00:06:49.396Z,97045.09
2023-01-27T00:09:18.134Z,97051.09
2023-01-27T00:12:04.123Z,97041.63
2023-01-27T00:14:32.667Z,97039.72
2023-01-27T00:17:02.496Z,97033.22
2023-01-27T00:19:31.481Z,97034.50
2023-01-27T00:22:17.820Z,97035.16
2023-01-27T00:24:46.614Z,97033.69
2023-01-27T00:27:15.228Z,97039.38
2023-01-27T00:29:44.042Z,97034.06
2023-01-27T00:32:31.527Z,97030.53
2023-01-27T00:35:00.440Z,97020.34
2023-01-27T00:37:29.283Z,97015.81
2023-01-27T00:39:57.888Z,97020.28
2023-01-27T00:42:27.323Z,97021.09
2023-01-27T00:45:13.952Z,97026.38
2023-01-27T00:47:44.921Z,97024.69
2023-01-27T00:50:14.269Z,97024.13
2023-01-27T00:52:44.566Z,97022.28
2023-01-27T00:55:16.003Z,97028.03
2023-01-27T00:57:45.809Z,97022.59
2023-01-27T01:00:16.268Z,97024.25
2023-01-27T01:02:46.690Z,97019.41
2023-01-27T01:05:15.867Z,97020.72
2023-01-27T01:07:44.420Z,97026.31
2023-01-27T01:10:13.583Z,97022.59
2023-01-27T01:12:42.758Z,97025.09
2023-01-27T01:15:12.493Z,97029.56
2023-01-27T01:17:41.021Z,97031.44
2023-01-27T01:20:13.656Z,97031.81
2023-01-27T01:22:43.018Z,97034.50
2023-01-27T01:25:11.755Z,97031.19
2023-01-27T01:27:40.472Z,97047.03
2023-01-27T01:30:11.034Z,97045.09
2023-01-27T01:32:40.065Z,97034.84
2023-01-27T01:35:11.108Z,97043.47
2023-01-27T01:37:42.059Z,97032.84
2023-01-27T01:40:13.734Z,97032.41
2023-01-27T01:42:58.920Z,97036.81
2023-01-27T01:45:52.775Z,97045.34
2023-01-27T01:48:33.996Z,97039.00
2023-01-27T01:51:13.530Z,97044.47
2023-01-27T01:53:48.559Z,97044.28
2023-01-27T01:56:26.321Z,97041.38
2023-01-27T01:59:02.294Z,97038.88
2023-01-27T02:01:30.813Z,97037.78
2023-01-27T02:04:06.450Z,97025.50
2023-01-27T02:06:42.221Z,97029.75
2023-01-27T02:09:14.168Z,97029.50
2023-01-27T02:11:43.697Z,97028.19
2023-01-27T02:14:17.459Z,97027.13
2023-01-27T02:16:46.602Z,97037.06
2023-01-27T02:19:26.086Z,97027.38
2023-01-27T02:21:59.157Z,97022.44
2023-01-27T02:24:39.259Z,97029.75
2023-01-27T02:27:09.492Z,97023.88
2023-01-27T02:29:38.257Z,97022.00
2023-01-27T02:32:07.121Z,97036.19
2023-01-27T02:34:39.351Z,97027.97
2023-01-27T02:37:11.287Z,97022.09
2023-01-27T02:39:46.513Z,97028.56
2023-01-27T02:42:19.621Z,97037.38
2023-01-27T02:44:48.376Z,97026.06
2023-01-27T02:47:16.804Z,97029.00
2023-01-27T02:49:45.683Z,97026.44
2023-01-27T02:52:14.499Z,97015.53
2023-01-27T02:54:43.527Z,97013.41
2023-01-27T02:57:12.255Z,97010.72
2023-01-27T02:59:55.496Z,97009.41
2023-01-27T03:02:30.507Z,97020.66
2023-01-27T03:05:00.211Z,97023.25
2023-01-27T03:07:29.090Z,97011.56
2023-01-27T03:09:58.332Z,97010.97
2023-01-27T03:12:27.152Z,97009.53
2023-01-27T03:15:15.126Z,97006.75
2023-01-27T03:18:01.575Z,96994.97
2023-01-27T03:20:30.070Z,97012.94
2023-01-27T03:22:58.875Z,97004.66
2023-01-27T03:25:30.065Z,97001.75
2023-01-27T03:28:00.135Z,97022.59
2023-01-27T03:30:44.834Z,97021.56
2023-01-27T03:33:19.802Z,97019.19
2023-01-27T03:35:49.335Z,97015.94
2023-01-27T03:38:40.093Z,97013.34
2023-01-27T03:41:26.264Z,97004.78
2023-01-27T03:44:12.218Z,97004.56
2023-01-27T03:46:42.558Z,97018.03
2023-01-27T03:49:11.367Z,97016.16
2023-01-27T03:51:40.187Z,97021.75
2023-01-27T03:54:10.067Z,97012.34
2023-01-27T03:56:38.739Z,97015.91
2023-01-27T03:59:07.619Z,97016.97
2023-01-27T04:01:36.451Z,97015.03
2023-01-27T04:04:24.255Z,97010.78
2023-01-27T04:06:58.229Z,97009.66
2023-01-27T04:09:29.730Z,97011.28
2023-01-27T04:12:01.475Z,97009.66
2023-01-27T04:14:33.080Z,97006.44
2023-01-27T04:17:05.300Z,97010.78
2023-01-27T04:19:35.871Z,97015.09
2023-01-27T04:22:06.012Z,97007.06
2023-01-27T04:24:35.205Z,97011.69
2023-01-27T04:27:06.944Z,97006.31
2023-01-27T04:29:38.669Z,96996.38
2023-01-27T04:32:08.348Z,97006.88
2023-01-27T04:34:39.855Z,97010.94
2023-01-27T04:37:10.709Z,97004.94
2023-01-27T04:39:39.818Z,97004.06
2023-01-27T04:42:08.896Z,97001.94
2023-01-27T04:44:37.478Z,97002.72
2023-01-27T04:47:06.328Z,96997.00
2023-01-27T04:49:35.231Z,97006.69
2023-01-27T04:52:05.424Z,97007.47
2023-01-27T04:54:34.203Z,97009.97
2023-01-27T04:57:03.990Z,97008.59
2023-01-27T04:59:32.679Z,97003.50
2023-01-27T05:02:01.199Z,97004.56
2023-01-27T05:04:29.787Z,97015.84
2023-01-27T05:06:58.630Z,97019.59
2023-01-27T05:09:28.524Z,97014.53
2023-01-27T05:11:57.311Z,97016.16
2023-01-27T05:14:26.235Z,97019.41
2023-01-27T05:16:54.831Z,97016.16
2023-01-27T05:19:23.703Z,97021.75
2023-01-27T05:21:52.543Z,97016.63
2023-01-27T05:24:21.347Z,97025.28
2023-01-27T05:26:51.397Z,97032.72
2023-01-27T05:29:20.309Z,97027.38
2023-01-27T05:31:49.150Z,97031.13
2023-01-27T05:34:18.066Z,97044.59
2023-01-27T05:36:46.616Z,97038.69
2023-01-27T05:39:15.875Z,97041.94
2023-01-27T05:41:44.349Z,97045.66
2023-01-27T05:44:14.675Z,97047.78
2023-01-27T05:46:43.635Z,97050.78
2023-01-27T05:49:12.205Z,97058.09
2023-01-27T05:51:41.907Z,97054.34
2023-01-27T05:54:11.377Z,97066.19
2023-01-27T05:56:40.840Z,97058.41
2023-01-27T05:59:11.491Z,97066.19
2023-01-27T06:19:51.874Z,97072.22
2023-01-27T06:22:20.597Z,97079.00
2023-01-27T06:24:48.938Z,97078.69
2023-01-27T06:27:17.399Z,97075.16
2023-01-27T06:29:45.885Z,97081.13
2023-01-27T06:32:14.410Z,97078.19
2023-01-27T06:34:42.703Z,97074.50
2023-01-27T06:37:13.152Z,97070.78
2023-01-27T06:39:41.669Z,97068.25
2023-01-27T06:42:10.332Z,97077.91
2023-01-27T06:44:38.789Z,97074.91
2023-01-27T06:47:07.597Z,97086.31
2023-01-27T06:49:36.204Z,97093.03
2023-01-27T06:52:05.069Z,97092.72
2023-01-27T06:54:35.117Z,97102.16
2023-01-27T06:57:03.606Z,97105.88
2023-01-27T06:59:32.193Z,97106.13
2023-01-27T07:02:04.116Z,97107.53
2023-01-27T07:04:32.805Z,97105.66
2023-01-27T07:07:01.140Z,97110.78
2023-01-27T07:09:30.756Z,97109.72
2023-01-27T07:12:01.839Z,97114.81
2023-01-27T07:14:30.194Z,97119.13
2023-01-27T07:16:58.630Z,97121.00
2023-01-27T07:19:27.053Z,97125.31
2023-01-27T07:21:55.420Z,97114.25
2023-01-27T07:24:24.074Z,97117.59
2023-01-27T07:26:52.561Z,97118.97
2023-01-27T07:47:10.950Z,97127.00
2023-01-27T08:01:48.373Z,97125.50
2023-01-27T08:04:18.367Z,97118.34
2023-01-27T08:06:47.290Z,97110.34
2023-01-27T08:21:34.969Z,97113.28
2023-01-27T09:10:15.632Z,97162.75
2023-01-27T09:12:45.523Z,97164.13
2023-01-27T09:15:15.903Z,97177.81
2023-01-27T09:17:44.391Z,97177.91
2023-01-27T09:20:14.174Z,97169.31
2023-01-27T09:22:43.280Z,97174.03
2023-01-27T09:25:18.035Z,97167.06
2023-01-27T09:27:46.392Z,97165.56
2023-01-27T09:30:17.605Z,97172.34
2023-01-27T09:32:45.978Z,97179.16
2023-01-27T09:35:15.286Z,97172.09
2023-01-27T09:37:50.916Z,97174.78
2023-01-27T09:40:33.461Z,97175.72
2023-01-27T09:43:39.153Z,97171.50
2023-01-27T09:46:38.973Z,97186.63
2023-01-27T09:49:40.620Z,97186.13
2023-01-27T09:52:48.045Z,97185.59
2023-01-27T09:55:31.878Z,97180.81
2023-01-27T09:58:12.104Z,97175.44
2023-01-27T10:00:57.179Z,97179.06
2023-01-27T10:04:12.143Z,97177.59
2023-01-27T10:06:59.186Z,97171.63
2023-01-27T10:10:13.031Z,97176.56
2023-01-27T10:13:06.656Z,97169.06
2023-01-27T10:15:53.949Z,97174.53
2023-01-27T10:18:45.415Z,97179.72
2023-01-27T10:21:22.726Z,97177.97
2023-01-27T10:24:04.076Z,97183.56
2023-01-27T10:26:40.682Z,97177.72
2023-01-27T10:29:18.974Z,97182.84
2023-01-27T10:31:57.852Z,97178.34
2023-01-27T10:34:35.579Z,97176.56
2023-01-27T10:37:24.561Z,97183.97
2023-01-27T10:40:02.518Z,97180.94
2023-01-27T10:42:40.343Z,97184.34
2023-01-27T10:45:27.714Z,97190.66
2023-01-27T10:48:18.331Z,97192.81
2023-01-27T10:50:53.455Z,97192.56
2023-01-27T10:53:33.691Z,97185.25
2023-01-27T10:56:10.771Z,97186.47
2023-01-27T10:58:55.266Z,97182.44
2023-01-27T11:01:33.002Z,97185.13
2023-01-27T11:04:10.922Z,97184.63
2023-01-27T11:06:44.002Z,97188.06
2023-01-27T11:09:27.130Z,97191.66
2023-01-27T11:12:02.891Z,97184.94
2023-01-27T11:14:39.059Z,97182.91
2023-01-27T11:17:21.492Z,97193.38
2023-01-27T11:20:02.293Z,97189.88
2023-01-27T11:22:38.842Z,97195.72
2023-01-27T11:25:23.963Z,97183.56
2023-01-27T11:28:20.860Z,97186.13
2023-01-27T11:31:02.697Z,97181.50
2023-01-27T11:33:51.821Z,97183.88
2023-01-27T11:36:20.142Z,97175.28
2023-01-27T11:38:48.792Z,97171.31
2023-01-27T11:41:17.314Z,97181.38
2023-01-27T11:43:46.436Z,97175.34
2023-01-27T11:46:25.455Z,97175.16
2023-01-27T11:48:59.881Z,97171.03
2023-01-27T11:51:36.892Z,97169.06
2023-01-27T11:54:14.475Z,97170.25
2023-01-27T11:56:44.975Z,97164.28
2023-01-27T11:59:22.937Z,97159.44
2023-01-27T12:01:59.196Z,97161.69
2023-01-27T12:04:51.842Z,97167.06
2023-01-27T12:07:35.299Z,97164.66
2023-01-27T12:10:04.376Z,97156.31
2023-01-27T12:12:38.107Z,97153.94
2023-01-27T12:15:15.647Z,97150.03
2023-01-27T12:17:48.756Z,97152.38
2023-01-27T12:20:34.040Z,97145.31
2023-01-27T12:23:15.229Z,97145.09
2023-01-27T12:25:51.952Z,97141.34
2023-01-27T12:28:34.723Z,97138.44
2023-01-27T12:31:11.366Z,97134.16
2023-01-27T12:33:45.394Z,97124.41
2023-01-27T12:36:19.193Z,97130.41
2023-01-27T12:38:52.775Z,97128.19
2023-01-27T12:41:28.259Z,97119.03
2023-01-27T12:44:00.292Z,97121.97
2023-01-27T12:46:30.615Z,97118.91
2023-01-27T12:49:10.170Z,97119.13
2023-01-27T12:51:45.685Z,97110.66
2023-01-27T12:54:23.255Z,97096.38
2023-01-27T12:56:53.629Z,97107.72
2023-01-27T12:59:26.684Z,97114.00
2023-01-27T13:02:16.761Z,97106.31
2023-01-27T13:04:52.734Z,97113.38
2023-01-27T13:07:28.819Z,97116.25
2023-01-27T13:10:03.233Z,97112.94
2023-01-27T13:12:48.107Z,97122.09
2023-01-27T13:15:20.714Z,97127.91
2023-01-27T13:17:51.432Z,97134.94
2023-01-27T13:20:26.045Z,97139.78
2023-01-27T13:23:04.306Z,97131.75
2023-01-27T13:25:41.229Z,97138.47
2023-01-27T13:28:18.515Z,97125.59
2023-01-27T13:30:55.307Z,97127.94
2023-01-27T13:33:37.950Z,97132.00
2023-01-27T13:36:13.470Z,97131.72
2023-01-27T13:38:53.631Z,97130.06
2023-01-27T13:41:30.337Z,97130.91
2023-01-27T13:44:06.831Z,97128.03
2023-01-27T13:46:41.637Z,97135.75
2023-01-27T13:49:29.938Z,97139.47
2023-01-27T13:51:58.382Z,97134.34
2023-01-27T13:54:30.146Z,97131.38
2023-01-27T13:57:24.735Z,97135.66
2023-01-27T14:00:08.891Z,97128.56
2023-01-27T14:03:15.367Z,97133.88
2023-01-27T14:06:04.072Z,97139.66
2023-01-27T14:09:21.608Z,97139.66
2023-01-27T14:12:03.411Z,97138.44
2023-01-27T14:14:58.481Z,97141.34
2023-01-27T14:17:48.212Z,97136.78
2023-01-27T14:20:39.208Z,97142.94
2023-01-27T14:23:29.161Z,97143.72
2023-01-27T14:26:15.534Z,97150.03
2023-01-27T14:29:03.612Z,97150.97
2023-01-27T14:31:52.719Z,97154.22
2023-01-27T14:34:43.978Z,97167.66
2023-01-27T14:37:25.965Z,97176.88
2023-01-27T14:40:14.526Z,97177.38
2023-01-27T14:42:56.578Z,97174.88
2023-01-27T14:45:33.541Z,97177.38
2023-01-27T14:48:20.842Z,97178.13
2023-01-27T14:51:07.054Z,97182.09
2023-01-27T14:53:53.265Z,97187.78
2023-01-27T14:56:38.500Z,97189.81
2023-01-27T14:59:26.554Z,97180.19
2023-01-27T15:02:08.425Z,97178.81
2023-01-27T15:04:45.338Z,97182.31
2023-01-27T15:07:23.233Z,97179.44
2023-01-27T15:10:21.809Z,97186.63
2023-01-27T15:13:30.465Z,97196.53
2023-01-27T15:16:38.672Z,97200.50
2023-01-27T15:19:44.440Z,97198.81
2023-01-27T15:22:43.616Z,97201.31
2023-01-27T15:25:33.618Z,97204.00
2023-01-27T15:28:03.646Z,97201.56
2023-01-27T15:30:34.996Z,97196.19
2023-01-27T15:33:03.568Z,97194.81
2023-01-27T15:35:41.671Z,97198.31
2023-01-27T15:38:35.386Z,97196.69
2023-01-27T15:41:10.884Z,97200.94
2023-01-27T15:43:44.144Z,97215.19
2023-01-27T15:46:32.548Z,97199.13
2023-01-27T15:49:04.703Z,97198.50
2023-01-27T15:51:38.019Z,97209.50
2023-01-27T15:54:13.237Z,97201.69
2023-01-27T15:56:50.408Z,97210.81
2023-01-27T15:59:25.354Z,97212.44
2023-01-27T16:02:18.099Z,97221.31
2023-01-27T16:04:55.376Z,97222.69
2023-01-27T16:07:33.266Z,97213.84
2023-01-27T16:10:03.848Z,97209.81
2023-01-27T16:12:42.466Z,97216.75
2023-01-27T16:15:36.181Z,97217.88
2023-01-27T16:18:27.972Z,97221.06
2023-01-27T16:21:06.526Z,97218.63
2023-01-27T16:23:50.089Z,97222.69
2023-01-27T16:26:35.657Z,97223.69
2023-01-27T16:29:37.267Z,97217.75
2023-01-27T16:32:17.025Z,97219.06
2023-01-27T16:34:50.706Z,97223.88
2023-01-27T16:37:26.980Z,97228.75
2023-01-27T16:40:07.094Z,97233.94
2023-01-27T16:42:43.565Z,97233.94
2023-01-27T16:45:23.067Z,97241.50
2023-01-27T16:47:59.257Z,97235.50
2023-01-27T16:50:37.444Z,97248.44
2023-01-27T16:53:09.977Z,97246.75
2023-01-27T16:55:43.969Z,97245.66
2023-01-27T16:58:25.832Z,97250.56
2023-01-27T17:00:59.050Z,97245.91
2023-01-27T17:03:37.620Z,97248.13
2023-01-27T17:06:10.104Z,97253.00
2023-01-27T17:08:46.641Z,97255.94
2023-01-27T17:11:29.754Z,97261.56
2023-01-27T17:14:01.527Z,97255.06
2023-01-27T17:16:36.363Z,97253.19
2023-01-27T17:19:11.902Z,97263.69
2023-01-27T17:21:44.778Z,97260.25
2023-01-27T17:24:23.383Z,97268.88
2023-01-27T17:27:08.637Z,97260.81
2023-01-27T17:29:40.694Z,97263.00
2023-01-27T17:32:22.350Z,97266.19
2023-01-27T17:34:53.090Z,97260.75
2023-01-27T17:37:24.420Z,97261.56
2023-01-27T17:39:57.146Z,97266.91
2023-01-27T17:42:35.180Z,97269.44
2023-01-27T17:45:24.059Z,97266.75
2023-01-27T17:47:52.893Z,97265.38
2023-01-27T17:50:25.527Z,97266.44
2023-01-27T17:52:57.105Z,97270.44
2023-01-27T17:55:28.090Z,97270.03
2023-01-27T17:58:05.937Z,97275.28
2023-01-27T18:00:40.226Z,97273.63
2023-01-27T18:03:16.319Z,97293.72
2023-01-27T18:05:53.217Z,97280.53
2023-01-27T18:08:23.642Z,97286.47
2023-01-27T18:10:56.403Z,97281.09
2023-01-27T18:13:42.192Z,97288.84
2023-01-27T18:16:17.333Z,97290.22
2023-01-27T18:18:47.173Z,97288.66
2023-01-27T18:21:19.991Z,97295.13
2023-01-27T18:23:51.339Z,97302.59
2023-01-27T18:26:26.056Z,97308.56
2023-01-27T18:29:01.717Z,97305.19
2023-01-27T18:31:35.303Z,97316.84
2023-01-27T18:34:23.078Z,97316.78
2023-01-27T18:36:56.687Z,97318.63
2023-01-27T18:39:34.820Z,97316.13
2023-01-27T18:42:11.553Z,97318.81
2023-01-27T18:44:41.307Z,97323.38
2023-01-27T18:47:33.117Z,97313.94
2023-01-27T18:50:15.039Z,97310.66
2023-01-27T18:52:44.208Z,97308.72
2023-01-27T18:55:18.824Z,97310.41
2023-01-27T18:57:49.979Z,97317.34
2023-01-27T19:00:31.203Z,97313.19
2023-01-27T19:03:01.844Z,97316.69
2023-01-27T19:05:33.950Z,97317.03
2023-01-27T19:08:03.456Z,97318.16
2023-01-27T19:10:35.125Z,97320.59
2023-01-27T19:13:05.722Z,97327.00
2023-01-27T19:15:39.768Z,97322.41
2023-01-27T19:18:16.570Z,97320.13
2023-01-27T19:20:45.198Z,97321.25
2023-01-27T19:23:17.086Z,97323.44
2023-01-27T19:25:49.606Z,97321.00
2023-01-27T19:28:26.990Z,97322.06
2023-01-27T19:30:56.962Z,97321.00
2023-01-27T19:33:27.599Z,97329.06
2023-01-27T19:35:58.770Z,97317.75
2023-01-27T19:38:29.756Z,97321.81
2023-01-27T19:40:58.404Z,97328.81
2023-01-27T19:43:26.893Z,97329.38
2023-01-27T19:45:56.660Z,97333.16
2023-01-27T19:48:26.278Z,97340.44
2023-01-27T19:50:54.629Z,97338.34
2023-01-27T19:53:23.109Z,97342.25
2023-01-27T19:55:52.106Z,97341.09
2023-01-27T19:58:24.710Z,97344.38
2023-01-27T20:00:56.879Z,97342.75
2023-01-27T20:03:25.234Z,97344.88
2023-01-27T20:05:53.982Z,97342.31
2023-01-27T20:08:23.049Z,97347.13
2023-01-27T20:10:52.690Z,97345.19
2023-01-27T20:13:22.308Z,97354.78
2023-01-27T20:15:54.065Z,97351.03
2023-01-27T20:18:24.244Z,97355.13
2023-01-27T20:20:52.630Z,97341.69
2023-01-27T20:23:21.338Z,97350.16
2023-01-27T20:25:49.845Z,97352.59
2023-01-27T20:28:18.176Z,97353.66
2023-01-27T20:30:46.911Z,97357.38
2023-01-27T20:33:15.452Z,97358.22
2023-01-27T20:35:45.075Z,97358.78
2023-01-27T20:38:13.381Z,97362.59
2023-01-27T20:40:41.773Z,97356.72
2023-01-27T20:43:10.152Z,97358.53
2023-01-27T20:45:39.127Z,97353.56
2023-01-27T20:48:08.068Z,97361.72
2023-01-27T20:50:39.505Z,97360.91
2023-01-27T20:53:09.201Z,97364.16
2023-01-27T20:55:37.650Z,97369.53
2023-01-27T20:58:06.367Z,97369.22
2023-01-27T21:00:34.765Z,97372.69
2023-01-27T21:03:04.356Z,97377.25
2023-01-27T21:05:34.383Z,97381.81
2023-01-27T21:08:02.642Z,97380.00
2023-01-27T21:10:32.670Z,97378.63
2023-01-27T21:13:01.348Z,97381.63
2023-01-27T21:15:29.595Z,97378.72
2023-01-27T21:18:00.031Z,97373.66
2023-01-27T21:20:31.871Z,97376.41
2023-01-27T21:23:04.131Z,97380.28
2023-01-27T21:25:41.070Z,97380.84
2023-01-27T21:28:09.802Z,97384.25
2023-01-27T21:30:38.262Z,97379.59
2023-01-27T21:33:10.408Z,97376.19
2023-01-27T21:35:39.454Z,97377.22
2023-01-27T21:38:07.788Z,97378.53
2023-01-27T21:40:40.715Z,97381.72
2023-01-27T21:43:29.004Z,97377.94
2023-01-27T21:46:00.103Z,97390.09
2023-01-27T21:48:28.406Z,97393.34
2023-01-27T21:50:56.921Z,97388.06
2023-01-27T21:53:25.931Z,97385.47
2023-01-27T21:55:55.536Z,97379.88
2023-01-27T21:58:24.661Z,97383.03
2023-01-27T22:00:53.253Z,97386.53
2023-01-27T22:03:22.963Z,97377.06
2023-01-27T22:05:51.232Z,97373.50
2023-01-27T22:08:19.562Z,97374.47
2023-01-27T22:10:47.894Z,97369.09
2023-01-27T22:13:17.618Z,97370.97
2023-01-27T22:15:51.292Z,97373.75
2023-01-27T22:18:19.661Z,97375.03
2023-01-27T22:20:47.968Z,97376.09
2023-01-27T22:23:16.494Z,97380.63
2023-01-27T22:25:50.057Z,97376.91
2023-01-27T22:28:20.642Z,97369.41
2023-01-27T22:30:49.025Z,97363.81
2023-01-27T22:33:21.157Z,97362.69
2023-01-27T22:35:49.521Z,97373.25
2023-01-27T22:38:17.879Z,97375.63
2023-01-27T22:40:46.399Z,97377.72
2023-01-27T22:43:15.172Z,97377.81
2023-01-27T22:45:45.527Z,97376.91
2023-01-27T22:48:14.399Z,97373.34
2023-01-27T22:50:43.178Z,97372.25
2023-01-27T22:53:11.719Z,97378.09
2023-01-27T22:55:40.301Z,97376.59
2023-01-27T22:58:10.145Z,97374.13
2023-01-27T23:00:39.163Z,97362.69
2023-01-27T23:03:08.931Z,97364.78
2023-01-27T23:05:37.563Z,97368.53
2023-01-27T23:08:06.005Z,97373.66
2023-01-27T23:10:35.017Z,97364.63
2023-01-27T23:13:03.967Z,97369.91
2023-01-27T23:15:32.586Z,97369.53
2023-01-27T23:18:01.049Z,97364.16
2023-01-27T23:20:30.706Z,97369.19
2023-01-27T23:22:59.123Z,97361.94
2023-01-27T23:25:27.945Z,97359.34
2023-01-27T23:27:56.511Z,97373.50
2023-01-27T23:30:25.101Z,97367.31
2023-01-27T23:32:55.975Z,97366.91
2023-01-27T23:35:24.292Z,97365.03
2023-01-27T23:37:53.992Z,97364.72
2023-01-27T23:40:22.357Z,97362.91
2023-01-27T23:42:50.623Z,97365.53
2023-01-27T23:45:19.102Z,97356.41
2023-01-27T23:47:47.398Z,97363.72
2023-01-27T23:50:16.169Z,97363.41
2023-01-27T23:52:47.808Z,97360.47
2023-01-27T23:55:17.793Z,97361.03
2023-01-27T23:57:46.057Z,97349.91
